Time;durP1;ratioP1;P1;durP2;ratioP2;P2;SDS_P1;SDS_P2;PMS_P1;PMS_P2;Temp;Humidity;BMP_temperature;BMP_pressure;BME280_temperature;BME280_humidity;BME280_pressure;Samples;Min_cycle;Max_cycle;Signal;HPM_P1;HPM_P2
2023/09/15 00:00:40;;;;;;;2.08;1.98;;;23.00;92.50;;;;;;4976232;28;20197;-73
2023/09/15 00:03:06;;;;;;;2.15;1.80;;;23.10;92.60;;;;;;4959015;28;20682;-73
2023/09/15 00:05:33;;;;;;;1.90;1.80;;;23.00;92.60;;;;;;4974761;28;20197;-72
2023/09/15 00:08:04;;;;;;;2.20;2.10;;;23.10;92.60;;;;;;4959079;28;20192;-73
2023/09/15 00:10:34;;;;;;;2.22;2.03;;;23.00;92.50;;;;;;4953636;28;20193;-72
2023/09/15 00:13:00;;;;;;;2.20;2.00;;;23.10;92.60;;;;;;4958895;28;20198;-72
2023/09/15 00:15:27;;;;;;;2.00;1.90;;;23.00;92.60;;;;;;4944654;28;20208;-72
2023/09/15 00:17:54;;;;;;;2.17;1.98;;;23.00;92.50;;;;;;4970030;28;20190;-72
2023/09/15 00:20:21;;;;;;;2.22;2.10;;;23.00;92.60;;;;;;4958591;28;20225;-73
2023/09/15 00:22:49;;;;;;;2.30;2.10;;;23.00;92.60;;;;;;4945482;28;20224;-72
2023/09/15 00:25:27;;;;;;;1.98;1.88;;;23.00;92.60;;;;;;4976269;28;20759;-72
2023/09/15 00:27:59;;;;;;;2.20;2.10;;;23.00;92.50;;;;;;4961891;28;20197;-72
2023/09/15 00:30:27;;;;;;;2.42;2.22;;;23.00;92.60;;;;;;4942841;28;20280;-72
2023/09/15 00:32:54;;;;;;;2.28;2.17;;;23.00;92.60;;;;;;4947101;28;20205;-73
2023/09/15 00:35:23;;;;;;;2.10;1.90;;;23.00;92.60;;;;;;4958309;28;20201;-73
2023/09/15 00:37:51;;;;;;;2.20;2.00;;;23.00;92.50;;;;;;4958181;28;20211;-73
2023/09/15 00:40:20;;;;;;;2.30;2.13;;;23.00;92.60;;;;;;4955631;28;20217;-72
2023/09/15 00:42:48;;;;;;;1.95;1.85;;;23.00;92.60;;;;;;4939373;29;20290;-72
2023/09/15 00:45:18;;;;;;;2.42;2.15;;;23.00;92.60;;;;;;4974016;28;20188;-72
2023/09/15 00:47:57;;;;;;;2.20;1.92;;;23.00;92.60;;;;;;4944023;29;20186;-73
2023/09/15 00:50:28;;;;;;;2.15;1.95;;;23.00;92.60;;;;;;4956254;28;20186;-72
2023/09/15 00:53:04;;;;;;;2.40;2.20;;;23.00;92.60;;;;;;4975404;28;20260;-72
2023/09/15 00:55:33;;;;;;;2.70;2.50;;;23.00;92.60;;;;;;4942112;28;20275;-72
2023/09/15 00:58:03;;;;;;;2.70;2.50;;;23.00;92.60;;;;;;4947260;28;20212;-72
2023/09/15 01:00:30;;;;;;;2.65;2.00;;;23.00;92.60;;;;;;4941779;28;20221;-72
2023/09/15 01:02:56;;;;;;;2.30;2.10;;;23.00;92.70;;;;;;4941994;28;20190;-72
2023/09/15 01:05:24;;;;;;;2.50;2.30;;;23.00;92.60;;;;;;4941683;28;20225;-72
2023/09/15 01:07:53;;;;;;;2.40;2.22;;;23.00;92.60;;;;;;4957869;28;20196;-72
2023/09/15 01:10:20;;;;;;;2.58;2.38;;;23.00;92.60;;;;;;4954964;28;20248;-72
2023/09/15 01:12:49;;;;;;;2.10;1.90;;;23.00;92.50;;;;;;4975114;28;20194;-72
2023/09/15 01:15:17;;;;;;;2.22;2.10;;;23.00;92.50;;;;;;4941646;28;20230;-72
2023/09/15 01:18:19;;;;;;;2.70;2.35;;;23.00;92.60;;;;;;4969339;28;20190;-72
2023/09/15 01:21:18;;;;;;;2.38;2.17;;;23.00;92.60;;;;;;4934522;29;20200;-73
2023/09/15 01:24:15;;;;;;;2.47;2.28;;;23.00;92.40;;;;;;4937472;28;20194;-73
2023/09/15 01:26:53;;;;;;;1.95;1.85;;;23.00;92.60;;;;;;4952946;28;20213;-72
2023/09/15 01:29:56;;;;;;;2.70;2.50;;;23.00;92.60;;;;;;4946161;28;20189;-72
2023/09/15 01:32:24;;;;;;;2.22;2.10;;;23.00;92.70;;;;;;4941422;28;20196;-72
2023/09/15 01:34:53;;;;;;;2.75;2.55;;;22.90;92.60;;;;;;4961967;28;20247;-73
2023/09/15 01:37:20;;;;;;;2.75;2.28;;;22.90;92.60;;;;;;4954041;28;20217;-73
2023/09/15 01:39:46;;;;;;;2.88;2.67;;;22.90;92.60;;;;;;4941176;28;20224;-72
2023/09/15 01:42:13;;;;;;;2.65;2.45;;;23.00;92.70;;;;;;4941240;28;20280;-73
2023/09/15 01:44:38;;;;;;;3.17;2.83;;;23.00;92.70;;;;;;4961303;28;20281;-72
2023/09/15 01:47:08;;;;;;;2.70;2.50;;;23.00;92.70;;;;;;4956927;28;20272;-72
2023/09/15 01:49:37;;;;;;;2.92;2.72;;;23.00;92.70;;;;;;4949927;28;20189;-72
2023/09/15 01:52:04;;;;;;;2.40;2.20;;;23.00;92.70;;;;;;4952667;28;20252;-72
2023/09/15 01:54:30;;;;;;;3.08;2.67;;;23.00;92.70;;;;;;4973156;28;20247;-73
2023/09/15 01:56:55;;;;;;;2.70;2.50;;;23.00;92.70;;;;;;4944349;28;20218;-72
2023/09/15 01:59:21;;;;;;;3.20;3.00;;;22.90;92.70;;;;;;4940974;28;20252;-73
2023/09/15 02:01:47;;;;;;;2.70;2.50;;;23.00;92.70;;;;;;4956837;28;20189;-72
2023/09/15 02:04:13;;;;;;;2.90;2.70;;;23.00;92.70;;;;;;4956890;28;20186;-72
2023/09/15 02:06:39;;;;;;;2.45;2.25;;;23.00;92.70;;;;;;4956462;28;20214;-72
2023/09/15 02:09:05;;;;;;;2.80;2.60;;;23.00;92.70;;;;;;4940946;28;20193;-72
2023/09/15 02:11:31;;;;;;;2.92;2.72;;;22.90;92.70;;;;;;4949158;28;20193;-73
2023/09/15 02:13:56;;;;;;;3.20;2.90;;;23.00;92.80;;;;;;4956896;28;20724;-73
2023/09/15 02:16:24;;;;;;;2.70;2.50;;;22.90;92.70;;;;;;4940303;28;20221;-73
2023/09/15 02:18:50;;;;;;;2.60;2.40;;;23.00;92.80;;;;;;4960638;28;20684;-73
2023/09/15 02:21:16;;;;;;;2.60;2.40;;;22.90;92.80;;;;;;4939795;28;20568;-72
2023/09/15 02:23:42;;;;;;;3.05;2.85;;;22.90;92.80;;;;;;4940518;28;20185;-72
2023/09/15 02:26:08;;;;;;;2.60;2.40;;;22.90;92.80;;;;;;4948332;28;20752;-72
2023/09/15 02:28:34;;;;;;;2.65;2.45;;;22.90;92.80;;;;;;4939257;28;20244;-73
2023/09/15 02:31:06;;;;;;;2.50;2.30;;;23.00;92.80;;;;;;4973485;28;20190;-72
2023/09/15 02:33:34;;;;;;;3.28;2.97;;;22.90;92.80;;;;;;4976234;28;20235;-72
2023/09/15 02:36:01;;;;;;;3.05;2.65;;;22.90;92.80;;;;;;4947889;28;20225;-72
2023/09/15 02:38:27;;;;;;;3.30;2.80;;;22.90;92.80;;;;;;4935795;28;20191;-73
2023/09/15 02:40:53;;;;;;;2.72;2.53;;;22.90;92.80;;;;;;4956609;28;20671;-72
2023/09/15 02:43:19;;;;;;;2.42;2.22;;;22.90;92.80;;;;;;4932632;28;20212;-72
2023/09/15 02:45:45;;;;;;;2.90;2.70;;;22.90;92.80;;;;;;4966049;28;20604;-72
2023/09/15 02:48:13;;;;;;;3.28;3.00;;;22.90;92.80;;;;;;4948114;29;20271;-72
2023/09/15 02:50:43;;;;;;;2.60;2.40;;;22.90;92.80;;;;;;4929337;29;20229;-72
2023/09/15 02:53:10;;;;;;;2.80;2.60;;;22.90;92.80;;;;;;4938176;28;20193;-72
2023/09/15 02:55:38;;;;;;;2.50;2.30;;;22.90;92.80;;;;;;4947945;28;20241;-72
2023/09/15 02:58:05;;;;;;;2.78;2.58;;;22.90;92.80;;;;;;4935445;28;20206;-72
2023/09/15 03:00:32;;;;;;;2.80;2.60;;;22.90;92.80;;;;;;4947642;28;20285;-72
2023/09/15 03:02:59;;;;;;;2.80;2.60;;;22.90;92.80;;;;;;4938009;28;20201;-73
2023/09/15 03:05:26;;;;;;;3.22;2.60;;;22.90;92.90;;;;;;4954486;28;20182;-72
2023/09/15 03:07:53;;;;;;;3.22;3.00;;;22.90;92.80;;;;;;4936416;28;20268;-72
2023/09/15 03:10:21;;;;;;;2.85;2.65;;;22.90;92.80;;;;;;4959192;28;20295;-72
2023/09/15 03:12:47;;;;;;;3.13;2.92;;;22.90;92.80;;;;;;4945795;28;20273;-72
2023/09/15 03:15:13;;;;;;;3.33;3.05;;;22.90;92.90;;;;;;4955113;28;20209;-73
2023/09/15 03:17:39;;;;;;;2.97;2.78;;;22.90;92.90;;;;;;4955644;28;20190;-72
2023/09/15 03:20:13;;;;;;;3.35;3.05;;;22.90;92.80;;;;;;4955925;28;20224;-72
2023/09/15 03:22:40;;;;;;;3.38;2.83;;;22.90;92.90;;;;;;4955768;28;20200;-72
2023/09/15 03:25:07;;;;;;;3.03;2.83;;;22.90;92.80;;;;;;4955305;28;20260;-72
2023/09/15 03:27:33;;;;;;;2.92;2.72;;;22.90;92.80;;;;;;4955659;28;20272;-72
2023/09/15 03:29:58;;;;;;;3.47;3.17;;;22.90;92.90;;;;;;4944299;28;20189;-73
2023/09/15 03:32:24;;;;;;;3.20;3.00;;;22.90;92.90;;;;;;4961963;28;20193;-72
2023/09/15 03:34:50;;;;;;;3.13;2.92;;;22.90;92.90;;;;;;4959243;28;20200;-72
2023/09/15 03:37:16;;;;;;;3.40;3.10;;;22.90;92.90;;;;;;4943671;28;20207;-72
2023/09/15 03:39:43;;;;;;;2.50;2.30;;;22.90;92.90;;;;;;4959276;28;20209;-72
2023/09/15 03:42:09;;;;;;;3.45;3.17;;;22.90;92.80;;;;;;4959552;28;20253;-72
2023/09/15 03:44:35;;;;;;;2.95;2.72;;;22.90;92.80;;;;;;4954255;28;20281;-72
2023/09/15 03:47:02;;;;;;;2.75;2.55;;;22.90;92.80;;;;;;4943566;28;20295;-72
2023/09/15 03:49:28;;;;;;;2.65;2.45;;;22.90;92.80;;;;;;4959405;28;20182;-71
2023/09/15 03:51:53;;;;;;;3.10;2.90;;;22.90;92.80;;;;;;4959153;28;20200;-72
2023/09/15 03:54:19;;;;;;;3.25;3.00;;;22.90;92.90;;;;;;4959303;28;20201;-72
2023/09/15 03:56:45;;;;;;;2.97;2.72;;;22.90;92.90;;;;;;4959046;28;20219;-72
2023/09/15 03:59:10;;;;;;;3.58;2.70;;;22.90;93.00;;;;;;4959292;28;20213;-73
2023/09/15 04:01:38;;;;;;;3.15;2.90;;;22.90;92.90;;;;;;4961593;28;20189;-72
2023/09/15 04:04:04;;;;;;;3.25;2.95;;;22.90;92.90;;;;;;4943278;28;20185;-73
2023/09/15 04:06:31;;;;;;;3.20;3.00;;;22.90;92.90;;;;;;4945309;28;20212;-73
2023/09/15 04:08:57;;;;;;;3.17;2.88;;;22.90;92.90;;;;;;4956678;28;20189;-72
2023/09/15 04:11:23;;;;;;;3.72;3.42;;;22.90;92.90;;;;;;4959096;28;20754;-72
2023/09/15 04:13:50;;;;;;;3.60;3.30;;;22.90;92.90;;;;;;4961702;28;20220;-73
2023/09/15 04:16:16;;;;;;;3.58;3.28;;;22.90;92.90;;;;;;4945217;28;20215;-71
2023/09/15 04:18:42;;;;;;;3.22;3.00;;;22.90;92.90;;;;;;4958685;28;20214;-72
2023/09/15 04:21:07;;;;;;;3.13;2.92;;;22.90;92.90;;;;;;4969309;28;20192;-72
2023/09/15 04:23:33;;;;;;;3.38;3.08;;;22.90;92.90;;;;;;4958970;28;20181;-71
2023/09/15 04:26:00;;;;;;;3.42;3.22;;;22.90;92.90;;;;;;4958700;28;20228;-72
2023/09/15 04:28:27;;;;;;;3.63;3.33;;;22.90;92.90;;;;;;4975940;28;20665;-72
2023/09/15 04:30:54;;;;;;;3.50;3.20;;;22.80;92.80;;;;;;4969193;28;20208;-72
2023/09/15 04:33:20;;;;;;;3.13;2.92;;;22.90;92.90;;;;;;4964473;28;20189;-72
2023/09/15 04:35:46;;;;;;;3.22;2.90;;;22.90;92.80;;;;;;4968246;28;20224;-72
2023/09/15 04:38:12;;;;;;;3.42;3.13;;;22.90;92.90;;;;;;4964151;28;20216;-72
2023/09/15 04:40:38;;;;;;;3.20;3.00;;;22.80;92.80;;;;;;4961219;28;20295;-72
2023/09/15 04:43:04;;;;;;;2.83;2.63;;;22.90;92.80;;;;;;4944007;28;20185;-72
2023/09/15 04:45:31;;;;;;;3.45;3.25;;;22.90;92.80;;;;;;4946718;28;20208;-72
2023/09/15 04:47:57;;;;;;;3.08;2.88;;;22.90;92.80;;;;;;4942367;28;20217;-72
2023/09/15 04:50:24;;;;;;;3.22;3.00;;;22.90;92.90;;;;;;4958592;28;20737;-72
2023/09/15 04:52:51;;;;;;;4.03;3.72;;;22.90;92.80;;;;;;4946639;28;20676;-72
2023/09/15 04:55:19;;;;;;;3.25;3.05;;;22.90;92.90;;;;;;4952180;28;20272;-72
2023/09/15 04:57:46;;;;;;;3.78;3.42;;;22.90;92.80;;;;;;4958396;28;20178;-72
2023/09/15 05:00:21;;;;;;;3.42;3.22;;;22.80;92.80;;;;;;4957717;28;20237;-73
2023/09/15 05:02:46;;;;;;;3.40;3.20;;;22.80;92.90;;;;;;4942360;28;20194;-73
2023/09/15 05:05:13;;;;;;;3.40;3.10;;;22.90;92.90;;;;;;4941815;28;20178;-73
2023/09/15 05:07:39;;;;;;;3.70;3.40;;;22.80;92.80;;;;;;4958018;28;20657;-72
2023/09/15 05:10:07;;;;;;;3.60;3.30;;;22.80;92.80;;;;;;4958108;28;20244;-73
2023/09/15 05:12:34;;;;;;;3.70;3.40;;;22.80;92.80;;;;;;4946001;28;20189;-73
2023/09/15 05:15:00;;;;;;;3.40;3.10;;;22.90;92.80;;;;;;4957650;28;20280;-71
2023/09/15 05:17:27;;;;;;;3.30;3.10;;;22.90;92.80;;;;;;4945203;28;20289;-72
2023/09/15 05:19:55;;;;;;;3.80;3.50;;;22.80;92.80;;;;;;4942054;28;20209;-73
2023/09/15 05:22:22;;;;;;;3.42;3.13;;;22.90;92.90;;;;;;4941468;28;20173;-72
2023/09/15 05:24:48;;;;;;;3.53;3.22;;;22.80;92.80;;;;;;4944619;28;20190;-73
2023/09/15 05:27:14;;;;;;;3.40;3.13;;;22.80;92.80;;;;;;4957254;28;20240;-73
2023/09/15 05:29:40;;;;;;;3.70;3.10;;;22.90;92.80;;;;;;4951516;28;20224;-73
2023/09/15 05:32:06;;;;;;;3.70;3.40;;;22.90;92.80;;;;;;4943173;28;20204;-73
2023/09/15 05:34:32;;;;;;;3.25;2.95;;;22.80;92.70;;;;;;4949691;28;20182;-72
2023/09/15 05:36:58;;;;;;;3.15;2.95;;;22.80;92.70;;;;;;4942045;28;20265;-72
2023/09/15 05:39:24;;;;;;;3.60;2.97;;;22.80;92.80;;;;;;4944277;28;20288;-72
2023/09/15 05:41:50;;;;;;;3.17;2.97;;;22.80;92.80;;;;;;4941345;28;20221;-72
2023/09/15 05:44:16;;;;;;;3.42;3.13;;;22.80;92.80;;;;;;4957337;28;20181;-72
2023/09/15 05:46:43;;;;;;;3.45;3.17;;;22.80;92.80;;;;;;4956971;28;20253;-72
2023/09/15 05:49:08;;;;;;;3.33;3.08;;;22.90;92.90;;;;;;4958030;28;20185;-72
2023/09/15 05:51:34;;;;;;;3.38;3.08;;;22.80;92.80;;;;;;4974555;28;20667;-72
2023/09/15 05:54:00;;;;;;;3.25;3.05;;;22.80;92.80;;;;;;4957797;28;20202;-72
2023/09/15 05:56:26;;;;;;;3.25;3.00;;;22.90;92.90;;;;;;4973549;28;20209;-72
2023/09/15 05:58:51;;;;;;;3.05;2.80;;;22.80;92.80;;;;;;4956729;28;20218;-72
2023/09/15 06:01:20;;;;;;;3.38;3.10;;;22.80;92.80;;;;;;4951641;28;20198;-72
2023/09/15 06:03:48;;;;;;;3.85;3.53;;;22.80;92.70;;;;;;4956516;28;20186;-71
2023/09/15 06:06:16;;;;;;;3.55;3.25;;;22.90;92.80;;;;;;4941412;28;20201;-72
2023/09/15 06:08:42;;;;;;;3.67;3.38;;;22.80;92.80;;;;;;4974753;28;20280;-72
2023/09/15 06:11:08;;;;;;;3.90;3.58;;;22.80;92.90;;;;;;4941883;28;20204;-72
2023/09/15 06:13:34;;;;;;;3.80;3.50;;;22.80;93.20;;;;;;4940584;28;20193;-72
2023/09/15 06:16:00;;;;;;;3.92;3.63;;;22.90;92.80;;;;;;4950492;28;20284;-72
2023/09/15 06:18:26;;;;;;;3.80;3.50;;;22.80;92.80;;;;;;4956740;28;20238;-73
2023/09/15 06:20:56;;;;;;;3.45;3.25;;;22.80;92.80;;;;;;4939739;28;20654;-73
2023/09/15 06:23:22;;;;;;;3.13;2.83;;;22.80;92.80;;;;;;4957672;28;20605;-72
2023/09/15 06:25:48;;;;;;;4.20;3.45;;;22.80;92.80;;;;;;4973673;28;20212;-72
2023/09/15 06:28:14;;;;;;;3.40;3.10;;;22.90;92.80;;;;;;4942148;28;20193;-72
2023/09/15 06:30:40;;;;;;;3.20;3.00;;;22.80;92.80;;;;;;4957312;28;20193;-72
2023/09/15 06:33:06;;;;;;;3.15;2.85;;;22.80;92.80;;;;;;4973489;28;20193;-72
2023/09/15 06:35:32;;;;;;;3.42;3.13;;;22.80;92.90;;;;;;4956053;28;20205;-72
2023/09/15 06:37:58;;;;;;;3.50;3.20;;;22.80;92.90;;;;;;4956434;28;20189;-72
2023/09/15 06:40:24;;;;;;;3.10;2.90;;;22.80;92.90;;;;;;4956433;28;20265;-72
2023/09/15 06:42:50;;;;;;;3.50;3.20;;;22.80;92.90;;;;;;4956222;28;20197;-72
2023/09/15 06:45:16;;;;;;;3.30;3.00;;;22.90;93.00;;;;;;4973409;28;20188;-73
2023/09/15 06:47:42;;;;;;;3.03;2.83;;;22.80;92.90;;;;;;4956419;28;20213;-72
2023/09/15 06:50:08;;;;;;;3.40;3.10;;;22.80;92.90;;;;;;4940323;28;20214;-72
2023/09/15 06:52:34;;;;;;;3.08;2.88;;;22.80;92.90;;;;;;4941336;28;20212;-72
2023/09/15 06:54:59;;;;;;;3.05;2.85;;;22.80;92.90;;;;;;4939796;28;20243;-72
2023/09/15 06:57:25;;;;;;;3.20;2.90;;;22.80;92.90;;;;;;4955882;28;20206;-72
2023/09/15 06:59:52;;;;;;;3.38;2.85;;;22.90;93.00;;;;;;4973079;28;20213;-72
2023/09/15 07:02:18;;;;;;;3.13;2.85;;;22.90;93.00;;;;;;4932870;28;20276;-72
2023/09/15 07:04:43;;;;;;;3.60;3.17;;;22.90;93.00;;;;;;4941239;29;20196;-72
2023/09/15 07:07:12;;;;;;;3.58;3.28;;;22.80;93.10;;;;;;4955092;28;20217;-72
2023/09/15 07:09:38;;;;;;;3.25;2.97;;;22.90;93.00;;;;;;4973140;28;20201;-73
2023/09/15 07:12:04;;;;;;;3.55;3.15;;;22.90;93.00;;;;;;4939631;28;20197;-72
2023/09/15 07:14:30;;;;;;;3.42;3.13;;;22.90;93.00;;;;;;4939556;28;20196;-73
2023/09/15 07:16:56;;;;;;;3.08;2.88;;;22.90;93.00;;;;;;4955449;28;20280;-72
2023/09/15 07:19:22;;;;;;;3.50;3.08;;;22.90;93.00;;;;;;4955654;28;20217;-73
2023/09/15 07:21:47;;;;;;;3.10;2.90;;;22.90;93.00;;;;;;4972944;28;20268;-72
2023/09/15 07:24:13;;;;;;;3.60;3.28;;;22.90;93.30;;;;;;4940006;28;20244;-72
2023/09/15 07:26:39;;;;;;;3.15;2.85;;;22.90;93.00;;;;;;4955176;28;20237;-72
2023/09/15 07:29:05;;;;;;;3.40;3.10;;;22.90;93.00;;;;;;4939653;28;20204;-72
2023/09/15 07:31:36;;;;;;;3.42;3.22;;;22.90;93.00;;;;;;4972706;28;20189;-72
2023/09/15 07:34:03;;;;;;;4.07;3.25;;;22.90;93.00;;;;;;4948362;28;20244;-72
2023/09/15 07:36:29;;;;;;;3.80;3.50;;;22.90;93.00;;;;;;4939369;28;20693;-72
2023/09/15 07:38:55;;;;;;;3.78;3.47;;;22.90;92.90;;;;;;4939487;28;20220;-72
2023/09/15 07:41:21;;;;;;;3.55;3.33;;;22.90;92.90;;;;;;4939407;28;20185;-72
2023/09/15 07:43:47;;;;;;;3.60;3.30;;;22.90;92.80;;;;;;4948529;29;20186;-72
2023/09/15 07:46:16;;;;;;;3.95;3.55;;;22.90;92.80;;;;;;4957766;28;20200;-72
2023/09/15 07:48:42;;;;;;;4.18;3.88;;;23.00;92.80;;;;;;4944096;28;20235;-72
2023/09/15 07:51:11;;;;;;;4.18;3.78;;;23.00;92.80;;;;;;4955765;28;20186;-73
2023/09/15 07:53:36;;;;;;;5.00;3.72;;;23.00;92.70;;;;;;4955557;28;20181;-73
2023/09/15 07:56:03;;;;;;;4.45;4.05;;;23.00;92.70;;;;;;4939163;28;20217;-72
2023/09/15 07:58:28;;;;;;;3.75;3.45;;;23.00;92.70;;;;;;4972413;28;20190;-73
2023/09/15 08:00:57;;;;;;;3.65;3.35;;;23.00;92.80;;;;;;4955072;28;20248;-72
2023/09/15 08:03:23;;;;;;;3.78;3.47;;;23.10;92.80;;;;;;4955375;28;20194;-72
2023/09/15 08:05:49;;;;;;;4.18;3.78;;;23.10;92.80;;;;;;4939472;28;20301;-72
2023/09/15 08:08:15;;;;;;;3.85;3.55;;;23.10;92.80;;;;;;4972356;28;20784;-73
2023/09/15 08:10:41;;;;;;;4.13;3.83;;;23.10;92.80;;;;;;4955279;28;20280;-74
2023/09/15 08:13:06;;;;;;;4.30;3.90;;;23.10;92.80;;;;;;4946108;28;20196;-72
2023/09/15 08:15:32;;;;;;;4.18;3.88;;;23.10;92.80;;;;;;4954878;28;20217;-72
2023/09/15 08:17:58;;;;;;;3.85;3.55;;;23.10;92.80;;;;;;4972906;28;20200;-73
2023/09/15 08:20:25;;;;;;;3.83;3.53;;;23.10;92.80;;;;;;4947559;29;20210;-73
2023/09/15 08:22:50;;;;;;;3.60;3.30;;;23.10;92.90;;;;;;4972477;28;20193;-72
2023/09/15 08:25:16;;;;;;;3.63;3.33;;;23.10;92.90;;;;;;4958430;28;20214;-72
2023/09/15 08:27:45;;;;;;;3.38;3.17;;;23.10;92.90;;;;;;4926864;28;20190;-72
2023/09/15 08:30:12;;;;;;;3.08;2.88;;;23.10;92.90;;;;;;4946878;28;20191;-72
2023/09/15 08:32:37;;;;;;;3.15;2.95;;;23.10;92.90;;;;;;4963849;28;20328;-72
2023/09/15 08:35:04;;;;;;;3.42;3.13;;;23.10;92.80;;;;;;4959177;28;20280;-72
2023/09/15 08:37:30;;;;;;;4.03;3.63;;;23.10;92.80;;;;;;4965005;28;20276;-72
2023/09/15 08:39:56;;;;;;;3.53;3.22;;;23.10;92.90;;;;;;4958615;28;20280;-73
2023/09/15 08:42:29;;;;;;;3.58;3.28;;;23.20;92.90;;;;;;4982132;28;20656;-73
2023/09/15 08:44:57;;;;;;;3.47;3.17;;;23.10;92.90;;;;;;4968580;28;20221;-72
2023/09/15 08:47:27;;;;;;;2.90;2.70;;;23.10;92.90;;;;;;4942259;28;20224;-73
2023/09/15 08:49:54;;;;;;;3.65;3.35;;;23.10;92.90;;;;;;4958220;28;20190;-73
2023/09/15 08:52:21;;;;;;;3.50;3.20;;;23.20;92.90;;;;;;4958239;28;20271;-72
2023/09/15 08:54:48;;;;;;;3.80;3.50;;;23.20;92.90;;;;;;4944553;29;20190;-72
2023/09/15 08:57:15;;;;;;;3.50;3.30;;;23.10;92.80;;;;;;4941543;28;20580;-73
2023/09/15 08:59:41;;;;;;;3.20;2.85;;;23.10;92.90;;;;;;4963662;28;20240;-73
2023/09/15 09:02:14;;;;;;;3.20;2.97;;;23.10;92.90;;;;;;4959221;28;20185;-72
2023/09/15 09:04:40;;;;;;;3.15;2.95;;;23.10;92.90;;;;;;4941802;28;20431;-72
2023/09/15 09:07:07;;;;;;;3.42;3.13;;;23.10;92.90;;;;;;4958030;28;20221;-73
2023/09/15 09:09:34;;;;;;;3.70;3.40;;;23.20;92.90;;;;;;4957793;28;20200;-72
2023/09/15 09:12:00;;;;;;;3.15;2.95;;;23.20;93.00;;;;;;4942209;28;20257;-72
2023/09/15 09:14:26;;;;;;;3.42;3.13;;;23.20;92.90;;;;;;4975160;28;20208;-72
2023/09/15 09:16:52;;;;;;;3.35;3.15;;;23.20;92.90;;;;;;4964837;28;20216;-72
2023/09/15 09:19:18;;;;;;;3.85;3.55;;;23.20;92.90;;;;;;4948792;28;20224;-72
2023/09/15 09:21:45;;;;;;;3.28;2.97;;;23.10;92.90;;;;;;4957765;28;20182;-72
2023/09/15 09:24:11;;;;;;;3.15;2.95;;;23.20;92.90;;;;;;4957539;28;20217;-73
2023/09/15 09:26:38;;;;;;;3.60;3.30;;;23.20;92.90;;;;;;4957721;28;20269;-72
2023/09/15 09:29:04;;;;;;;3.35;3.03;;;23.10;92.90;;;;;;4941377;28;20691;-73
2023/09/15 09:31:31;;;;;;;4.00;3.70;;;23.10;92.90;;;;;;4945740;29;20195;-73
2023/09/15 09:34:01;;;;;;;3.38;3.17;;;23.10;92.90;;;;;;4971956;28;20285;-73
2023/09/15 09:36:27;;;;;;;3.13;2.92;;;23.10;92.90;;;;;;4957151;28;20692;-73
2023/09/15 09:38:53;;;;;;;3.33;3.03;;;23.10;92.90;;;;;;4937563;28;20211;-73
2023/09/15 09:41:24;;;;;;;3.08;2.88;;;23.20;92.90;;;;;;4948721;28;20236;-73
2023/09/15 09:43:50;;;;;;;3.80;3.50;;;23.20;93.00;;;;;;4941451;28;20213;-73
2023/09/15 09:46:21;;;;;;;4.07;3.72;;;23.20;92.80;;;;;;4940832;28;20213;-71
2023/09/15 09:48:51;;;;;;;3.35;3.10;;;23.10;92.90;;;;;;4957597;28;20185;-72
2023/09/15 09:51:18;;;;;;;3.30;3.10;;;23.20;93.00;;;;;;4973293;28;20273;-73
2023/09/15 09:53:44;;;;;;;4.35;3.20;;;23.20;92.90;;;;;;4946552;29;20179;-73
2023/09/15 09:56:10;;;;;;;3.33;3.05;;;23.10;92.90;;;;;;4956854;28;20214;-73
2023/09/15 09:58:38;;;;;;;3.50;3.30;;;23.20;92.90;;;;;;4957047;28;20190;-72
2023/09/15 10:01:09;;;;;;;4.30;3.58;;;23.10;92.90;;;;;;4940864;28;20202;-73
2023/09/15 10:03:36;;;;;;;3.53;3.22;;;23.10;92.80;;;;;;4935702;28;20181;-73
2023/09/15 10:06:05;;;;;;;3.72;3.42;;;23.10;92.80;;;;;;4956727;28;20296;-72
2023/09/15 10:08:32;;;;;;;3.78;3.47;;;23.20;92.90;;;;;;4974089;28;20190;-73
2023/09/15 10:10:58;;;;;;;3.60;3.30;;;23.20;93.00;;;;;;4947954;29;20190;-72
2023/09/15 10:13:24;;;;;;;3.58;3.28;;;23.20;92.90;;;;;;4973019;28;20243;-72
2023/09/15 10:15:51;;;;;;;3.83;3.53;;;23.20;92.90;;;;;;4946604;28;20217;-73
2023/09/15 10:18:20;;;;;;;3.40;3.20;;;23.20;93.30;;;;;;4940629;28;20249;-73
2023/09/15 10:20:51;;;;;;;3.70;3.42;;;23.20;92.90;;;;;;4961890;28;20221;-73
2023/09/15 10:23:17;;;;;;;4.25;3.83;;;23.20;92.80;;;;;;4956671;28;20194;-73
2023/09/15 10:25:54;;;;;;;4.38;3.97;;;23.20;92.90;;;;;;4940665;28;20243;-73
2023/09/15 10:28:24;;;;;;;4.25;3.85;;;23.20;92.90;;;;;;4956678;28;20200;-73
2023/09/15 10:30:58;;;;;;;4.20;3.88;;;23.20;93.00;;;;;;4956369;28;20197;-72
2023/09/15 10:33:28;;;;;;;4.50;4.07;;;23.20;92.90;;;;;;4972738;28;20197;-73
2023/09/15 10:36:03;;;;;;;3.80;3.50;;;23.20;93.00;;;;;;4955975;28;20224;-73
2023/09/15 10:38:32;;;;;;;4.53;4.13;;;23.20;93.00;;;;;;4956127;28;20199;-73
2023/09/15 10:41:01;;;;;;;4.35;4.03;;;23.20;93.00;;;;;;4947706;28;20683;-72
2023/09/15 10:43:26;;;;;;;4.80;4.47;;;23.20;93.00;;;;;;4956283;28;20193;-73
2023/09/15 10:46:04;;;;;;;4.18;3.88;;;23.20;93.00;;;;;;4973217;28;20240;-73
2023/09/15 10:48:47;;;;;;;3.92;3.63;;;23.20;93.00;;;;;;4956157;28;20193;-72
2023/09/15 10:51:17;;;;;;;4.70;4.30;;;23.20;93.00;;;;;;4940578;28;20564;-73
2023/09/15 10:53:59;;;;;;;4.45;4.10;;;23.20;93.00;;;;;;4977609;28;20264;-71
2023/09/15 10:56:25;;;;;;;4.63;4.32;;;23.20;93.00;;;;;;4954403;28;20674;-71
2023/09/15 10:58:51;;;;;;;3.80;3.50;;;23.10;93.00;;;;;;4939786;28;20276;-72
2023/09/15 11:01:19;;;;;;;5.03;4.63;;;23.20;93.10;;;;;;4940053;28;20217;-72
2023/09/15 11:03:45;;;;;;;5.90;5.40;;;23.20;93.20;;;;;;4973567;28;20190;-73
2023/09/15 11:06:14;;;;;;;5.50;5.00;;;23.20;93.20;;;;;;4955713;28;20213;-72
2023/09/15 11:08:41;;;;;;;5.05;4.65;;;23.10;93.10;;;;;;4955944;28;20649;-72
2023/09/15 11:11:09;;;;;;;5.82;5.43;;;23.20;93.20;;;;;;4955781;28;20276;-72
2023/09/15 11:13:44;;;;;;;5.07;4.68;;;23.10;93.10;;;;;;4955781;28;20744;-72
2023/09/15 11:16:10;;;;;;;5.60;5.20;;;23.10;93.20;;;;;;4939801;28;20582;-72
2023/09/15 11:18:38;;;;;;;6.30;5.70;;;23.20;93.30;;;;;;4947051;29;20193;-72
2023/09/15 11:21:05;;;;;;;5.97;5.57;;;23.20;93.30;;;;;;4954150;28;20201;-72
2023/09/15 11:23:31;;;;;;;5.50;5.10;;;23.20;93.20;;;;;;4939583;28;20289;-72
2023/09/15 11:26:03;;;;;;;5.97;5.47;;;23.20;93.20;;;;;;4955391;28;20215;-71
2023/09/15 11:28:36;;;;;;;6.03;5.57;;;23.20;93.20;;;;;;4939603;28;20263;-72
2023/09/15 11:31:07;;;;;;;6.45;5.95;;;23.20;93.30;;;;;;4955673;28;20189;-72
2023/09/15 11:33:33;;;;;;;5.55;5.10;;;23.20;93.20;;;;;;4958175;28;20256;-70
2023/09/15 11:36:02;;;;;;;6.03;5.53;;;23.20;93.30;;;;;;4941708;28;20213;-72
2023/09/15 11:38:28;;;;;;;5.88;5.43;;;23.20;93.30;;;;;;4955597;28;20272;-73
2023/09/15 11:40:54;;;;;;;6.18;5.68;;;23.20;93.30;;;;;;4943609;28;20214;-72
2023/09/15 11:43:23;;;;;;;6.13;5.63;;;23.20;93.30;;;;;;4972807;28;20186;-73
2023/09/15 11:45:51;;;;;;;6.32;5.82;;;23.20;93.30;;;;;;4936481;29;20323;-72
2023/09/15 11:48:19;;;;;;;6.55;6.05;;;23.20;93.40;;;;;;4936663;28;20205;-72
2023/09/15 11:50:46;;;;;;;6.40;5.90;;;23.20;93.40;;;;;;4941800;29;20198;-72
2023/09/15 11:53:12;;;;;;;6.88;6.38;;;23.20;93.30;;;;;;4981444;28;20751;-73
2023/09/15 11:55:38;;;;;;;6.90;6.40;;;23.20;93.40;;;;;;4952478;28;20244;-72
2023/09/15 11:58:05;;;;;;;6.25;5.75;;;23.20;93.40;;;;;;4959054;28;20280;-72
2023/09/15 12:00:33;;;;;;;6.55;5.97;;;23.20;93.30;;;;;;4948201;28;20312;-72
2023/09/15 12:03:00;;;;;;;5.93;5.43;;;23.20;93.30;;;;;;4959123;28;20203;-71
2023/09/15 12:05:27;;;;;;;5.60;5.20;;;23.20;93.30;;;;;;4974627;28;20194;-71
2023/09/15 12:07:53;;;;;;;5.95;5.53;;;23.20;93.30;;;;;;4959300;28;20221;-72
2023/09/15 12:10:26;;;;;;;6.13;5.68;;;23.20;93.30;;;;;;4952310;28;20236;-72
2023/09/15 12:12:59;;;;;;;6.22;5.72;;;23.20;93.30;;;;;;4947750;29;20199;-72
2023/09/15 12:15:27;;;;;;;6.45;5.95;;;23.20;93.30;;;;;;4956420;28;20190;-73
2023/09/15 12:17:53;;;;;;;6.65;6.13;;;23.20;93.30;;;;;;4958582;28;20186;-72
2023/09/15 12:20:23;;;;;;;6.55;6.00;;;23.20;93.20;;;;;;4942564;28;20232;-72
2023/09/15 12:22:49;;;;;;;6.50;5.90;;;23.20;93.20;;;;;;4958749;28;20193;-72
2023/09/15 12:25:16;;;;;;;6.28;5.78;;;23.20;93.20;;;;;;4958220;28;20204;-70
2023/09/15 12:27:43;;;;;;;6.38;5.85;;;23.20;93.20;;;;;;4958532;28;20205;-73
2023/09/15 12:30:11;;;;;;;6.50;6.00;;;23.20;93.30;;;;;;4958809;28;20197;-72
2023/09/15 12:32:38;;;;;;;6.00;5.45;;;23.20;93.30;;;;;;4958606;28;20278;-71
2023/09/15 12:35:12;;;;;;;6.45;5.88;;;23.20;93.20;;;;;;4958117;28;20252;-72
2023/09/15 12:37:46;;;;;;;6.40;5.90;;;23.20;93.20;;;;;;4960117;28;20216;-72
2023/09/15 12:40:14;;;;;;;6.78;6.20;;;23.20;93.30;;;;;;4956740;28;20225;-72
2023/09/15 12:42:41;;;;;;;7.22;6.53;;;23.20;93.20;;;;;;4958208;28;20186;-72
2023/09/15 12:45:07;;;;;;;6.28;5.78;;;23.20;93.20;;;;;;4975427;28;20224;-72
2023/09/15 12:47:33;;;;;;;6.22;5.63;;;23.20;93.20;;;;;;4942525;28;20723;-72
2023/09/15 12:50:00;;;;;;;6.47;5.75;;;23.20;93.20;;;;;;4942202;28;20385;-72